Αρχική σελίδα
METAR-TAF:

METAR-TAF

Αεροδρόμια :

Weno, Μικρονησία

γεωγραφικό πλάτος: 07-28N, γεωγραφικό μήκος: 151-51E, υψόμετρο: 3 μ

Παρών καιρός

Η αναφορά έγινε 2 ώρες και 50 λεπτά πριν, στις 01:50 UTC
Άνεμος 7 kt από BA
Θερμοκρασία 31°C
Υγρασία 75%
Πίεση 1009 hPa
Ορατότητα: 24.1 χλμ
Λίγα νέφη σε ύψος 1400 πόδια
Διάσπαρτα νέφη σε ύψος 12000 πόδια
Νεφοσκεπής σε ύψος 28000 πόδια

METAR: PTKK 250150Z 04007KT 15SM FEW014 SCT120 OVC280 31/26 A2981 RMK SLP096 T03080259

Χρόνος: 14:40 (04:40 UTC)

Πρόγνωση Καιρού

Η αναφορά έγινε 5 ώρες και 5 λεπτά πριν, στις 23:35 UTC
Η πρόγνωση ισχύει από τις 25 στις 00 UTC έως τις 25 στις 24 UTC
Άνεμος 12 kt από Α/BA
Ορατότητα: 10 χλμ
Διάσπαρτα νέφη σε ύψος 1200 πόδια
Όμβροι σε κοντινή απόσταση,

TAF: PTKK 242335Z 2500/2524 07012KT P6SM VCSH SCT012

Μετεωρολογικές αναφορές και προγνώσεις για περισσότερα από 4000 αεροδρόμια (δελτία METAR και TAF).

Οι διαθέσιμοι σταθμοί απεικονίζονται στο χάρτη με κίτρινες και κόκκινες κουκκίδες.

Μετακινήστε το ποντίκι πάνω από τις κουκκίδες για να δείτε το όνομα του σταθμού.

Στη συνέχεια, κάντε κλικ για να δείτε τις μετεωρολογικές αναφορές και τις προγνώσεις καιρού.

Για να αλλάξετε το χάρτη: κάντε κλικ στα πράσινα κουμπιά με τον μαύρο σταυρό για να ζουμάρετε, στο πράσινο κουμπί με την παύλα για να αφαιρέσετε το ζουμ ή στα πράσινα βέλη για να αντιπαραβάλλετε χάρτες.


METAR-TAF: